sensor_id;sensor_type;location;lat;lon;timestamp;P1;durP1;ratioP1;P2;durP2;ratioP2
45970;SDS011;31681;48.982;8.394;2024-03-08T00:00:29;28.47;;;15.17;;
45970;SDS011;31681;48.982;8.394;2024-03-08T00:02:57;25.37;;;14.53;;
45970;SDS011;31681;48.982;8.394;2024-03-08T00:05:23;29.30;;;16.17;;
45970;SDS011;31681;48.982;8.394;2024-03-08T00:07:49;27.93;;;16.07;;
45970;SDS011;31681;48.982;8.394;2024-03-08T00:10:14;26.47;;;15.50;;
45970;SDS011;31681;48.982;8.394;2024-03-08T00:12:40;28.63;;;16.03;;
45970;SDS011;31681;48.982;8.394;2024-03-08T00:15:09;27.60;;;15.70;;
45970;SDS011;31681;48.982;8.394;2024-03-08T00:17:36;26.90;;;15.87;;
45970;SDS011;31681;48.982;8.394;2024-03-08T00:20:01;25.33;;;15.10;;
45970;SDS011;31681;48.982;8.394;2024-03-08T00:22:28;29.40;;;16.17;;
45970;SDS011;31681;48.982;8.394;2024-03-08T00:24:55;28.20;;;15.40;;
45970;SDS011;31681;48.982;8.394;2024-03-08T00:27:21;26.53;;;15.93;;
45970;SDS011;31681;48.982;8.394;2024-03-08T00:29:47;28.00;;;16.57;;
45970;SDS011;31681;48.982;8.394;2024-03-08T00:32:12;30.07;;;16.07;;
45970;SDS011;31681;48.982;8.394;2024-03-08T00:34:38;27.23;;;15.50;;
45970;SDS011;31681;48.982;8.394;2024-03-08T00:37:06;30.57;;;17.73;;
45970;SDS011;31681;48.982;8.394;2024-03-08T00:39:32;27.77;;;16.47;;
45970;SDS011;31681;48.982;8.394;2024-03-08T00:41:57;28.07;;;15.53;;
45970;SDS011;31681;48.982;8.394;2024-03-08T00:44:23;29.63;;;16.43;;
45970;SDS011;31681;48.982;8.394;2024-03-08T00:46:49;27.20;;;16.53;;
45970;SDS011;31681;48.982;8.394;2024-03-08T00:49:15;29.03;;;15.63;;
45970;SDS011;31681;48.982;8.394;2024-03-08T00:51:40;28.73;;;14.97;;
45970;SDS011;31681;48.982;8.394;2024-03-08T00:54:05;31.93;;;16.77;;
45970;SDS011;31681;48.982;8.394;2024-03-08T00:56:31;31.70;;;15.87;;
45970;SDS011;31681;48.982;8.394;2024-03-08T00:58:56;27.93;;;15.40;;
45970;SDS011;31681;48.982;8.394;2024-03-08T01:01:21;28.07;;;16.17;;
45970;SDS011;31681;48.982;8.394;2024-03-08T01:03:47;30.57;;;16.53;;
45970;SDS011;31681;48.982;8.394;2024-03-08T01:06:13;30.93;;;17.10;;
45970;SDS011;31681;48.982;8.394;2024-03-08T01:08:39;34.47;;;18.50;;
45970;SDS011;31681;48.982;8.394;2024-03-08T01:11:07;34.87;;;17.47;;
45970;SDS011;31681;48.982;8.394;2024-03-08T01:13:32;28.77;;;16.60;;
45970;SDS011;31681;48.982;8.394;2024-03-08T01:15:58;31.33;;;17.37;;
45970;SDS011;31681;48.982;8.394;2024-03-08T01:18:23;28.30;;;15.83;;
45970;SDS011;31681;48.982;8.394;2024-03-08T01:20:48;32.53;;;16.90;;
45970;SDS011;31681;48.982;8.394;2024-03-08T01:23:13;29.97;;;15.40;;
45970;SDS011;31681;48.982;8.394;2024-03-08T01:25:39;30.07;;;16.47;;
45970;SDS011;31681;48.982;8.394;2024-03-08T01:28:04;30.63;;;16.70;;
45970;SDS011;31681;48.982;8.394;2024-03-08T01:30:30;28.43;;;16.50;;
45970;SDS011;31681;48.982;8.394;2024-03-08T01:32:58;29.87;;;15.67;;
45970;SDS011;31681;48.982;8.394;2024-03-08T01:35:23;33.90;;;17.67;;
45970;SDS011;31681;48.982;8.394;2024-03-08T01:37:48;32.63;;;16.80;;
45970;SDS011;31681;48.982;8.394;2024-03-08T01:40:14;31.30;;;16.80;;
45970;SDS011;31681;48.982;8.394;2024-03-08T01:42:40;32.57;;;15.93;;
45970;SDS011;31681;48.982;8.394;2024-03-08T01:45:06;28.53;;;16.77;;
45970;SDS011;31681;48.982;8.394;2024-03-08T01:47:31;31.27;;;16.23;;
45970;SDS011;31681;48.982;8.394;2024-03-08T01:49:58;29.23;;;16.20;;
45970;SDS011;31681;48.982;8.394;2024-03-08T01:52:25;32.63;;;16.20;;
45970;SDS011;31681;48.982;8.394;2024-03-08T01:54:51;33.57;;;16.00;;
45970;SDS011;31681;48.982;8.394;2024-03-08T01:57:17;31.33;;;16.70;;
45970;SDS011;31681;48.982;8.394;2024-03-08T01:59:42;34.07;;;17.47;;
45970;SDS011;31681;48.982;8.394;2024-03-08T02:02:08;33.33;;;17.37;;
45970;SDS011;31681;48.982;8.394;2024-03-08T02:04:36;28.77;;;16.03;;
45970;SDS011;31681;48.982;8.394;2024-03-08T02:07:03;29.63;;;16.13;;
45970;SDS011;31681;48.982;8.394;2024-03-08T02:09:30;31.00;;;15.77;;
45970;SDS011;31681;48.982;8.394;2024-03-08T02:11:56;30.57;;;16.03;;
45970;SDS011;31681;48.982;8.394;2024-03-08T02:14:21;32.57;;;16.80;;
45970;SDS011;31681;48.982;8.394;2024-03-08T02:16:46;31.37;;;16.23;;
45970;SDS011;31681;48.982;8.394;2024-03-08T02:19:12;27.60;;;15.47;;
45970;SDS011;31681;48.982;8.394;2024-03-08T02:21:37;33.83;;;16.83;;
45970;SDS011;31681;48.982;8.394;2024-03-08T02:24:03;30.50;;;16.10;;
45970;SDS011;31681;48.982;8.394;2024-03-08T02:26:28;30.40;;;16.17;;
45970;SDS011;31681;48.982;8.394;2024-03-08T02:28:54;31.50;;;16.37;;
45970;SDS011;31681;48.982;8.394;2024-03-08T02:31:19;32.60;;;16.67;;
45970;SDS011;31681;48.982;8.394;2024-03-08T02:33:44;29.47;;;16.43;;
45970;SDS011;31681;48.982;8.394;2024-03-08T02:36:12;30.50;;;16.80;;
45970;SDS011;31681;48.982;8.394;2024-03-08T02:38:37;30.90;;;16.70;;
45970;SDS011;31681;48.982;8.394;2024-03-08T02:41:03;32.77;;;16.63;;
45970;SDS011;31681;48.982;8.394;2024-03-08T02:43:29;28.50;;;15.07;;
45970;SDS011;31681;48.982;8.394;2024-03-08T02:45:54;32.43;;;16.30;;
45970;SDS011;31681;48.982;8.394;2024-03-08T02:48:19;28.50;;;15.30;;
45970;SDS011;31681;48.982;8.394;2024-03-08T02:50:46;29.20;;;15.67;;
45970;SDS011;31681;48.982;8.394;2024-03-08T02:53:12;28.67;;;15.83;;
45970;SDS011;31681;48.982;8.394;2024-03-08T02:55:38;31.20;;;16.60;;
45970;SDS011;31681;48.982;8.394;2024-03-08T02:58:04;29.80;;;16.20;;
45970;SDS011;31681;48.982;8.394;2024-03-08T03:00:30;29.53;;;16.60;;
45970;SDS011;31681;48.982;8.394;2024-03-08T03:02:56;30.97;;;16.63;;
45970;SDS011;31681;48.982;8.394;2024-03-08T03:05:22;31.37;;;16.40;;
45970;SDS011;31681;48.982;8.394;2024-03-08T03:07:47;28.80;;;15.23;;
45970;SDS011;31681;48.982;8.394;2024-03-08T03:10:13;28.43;;;15.30;;
45970;SDS011;31681;48.982;8.394;2024-03-08T03:12:42;30.90;;;16.17;;
45970;SDS011;31681;48.982;8.394;2024-03-08T03:15:07;30.87;;;15.97;;
45970;SDS011;31681;48.982;8.394;2024-03-08T03:17:33;28.97;;;16.00;;
45970;SDS011;31681;48.982;8.394;2024-03-08T03:19:58;29.77;;;16.07;;
45970;SDS011;31681;48.982;8.394;2024-03-08T03:22:23;30.60;;;16.40;;
45970;SDS011;31681;48.982;8.394;2024-03-08T03:24:50;29.60;;;15.93;;
45970;SDS011;31681;48.982;8.394;2024-03-08T03:27:16;29.97;;;16.03;;
45970;SDS011;31681;48.982;8.394;2024-03-08T03:29:42;31.27;;;15.63;;
45970;SDS011;31681;48.982;8.394;2024-03-08T03:32:14;28.97;;;16.27;;
45970;SDS011;31681;48.982;8.394;2024-03-08T03:34:39;27.13;;;15.27;;
45970;SDS011;31681;48.982;8.394;2024-03-08T03:37:05;34.87;;;16.60;;
45970;SDS011;31681;48.982;8.394;2024-03-08T03:39:32;30.00;;;16.23;;
45970;SDS011;31681;48.982;8.394;2024-03-08T03:42:00;29.50;;;15.50;;
45970;SDS011;31681;48.982;8.394;2024-03-08T03:44:29;29.93;;;16.37;;
45970;SDS011;31681;48.982;8.394;2024-03-08T03:46:54;32.50;;;16.50;;
45970;SDS011;31681;48.982;8.394;2024-03-08T03:49:19;32.47;;;16.07;;
45970;SDS011;31681;48.982;8.394;2024-03-08T03:51:45;29.70;;;16.87;;
45970;SDS011;31681;48.982;8.394;2024-03-08T03:54:10;27.97;;;15.10;;
45970;SDS011;31681;48.982;8.394;2024-03-08T03:56:36;27.40;;;14.57;;
45970;SDS011;31681;48.982;8.394;2024-03-08T03:59:01;33.67;;;16.43;;
45970;SDS011;31681;48.982;8.394;2024-03-08T04:01:26;30.10;;;15.47;;
45970;SDS011;31681;48.982;8.394;2024-03-08T04:03:52;28.80;;;15.23;;
45970;SDS011;31681;48.982;8.394;2024-03-08T04:06:17;30.50;;;15.37;;
45970;SDS011;31681;48.982;8.394;2024-03-08T04:08:42;30.87;;;16.00;;
45970;SDS011;31681;48.982;8.394;2024-03-08T04:11:08;29.63;;;15.80;;
45970;SDS011;31681;48.982;8.394;2024-03-08T04:13:36;25.80;;;14.73;;
45970;SDS011;31681;48.982;8.394;2024-03-08T04:16:02;29.07;;;15.97;;
45970;SDS011;31681;48.982;8.394;2024-03-08T04:18:27;28.90;;;15.90;;
45970;SDS011;31681;48.982;8.394;2024-03-08T04:20:53;30.70;;;14.73;;
45970;SDS011;31681;48.982;8.394;2024-03-08T04:23:18;34.27;;;16.10;;
45970;SDS011;31681;48.982;8.394;2024-03-08T04:25:44;29.00;;;14.83;;
45970;SDS011;31681;48.982;8.394;2024-03-08T04:28:10;27.93;;;15.40;;
45970;SDS011;31681;48.982;8.394;2024-03-08T04:30:37;30.83;;;16.00;;
45970;SDS011;31681;48.982;8.394;2024-03-08T04:33:15;27.67;;;14.20;;
45970;SDS011;31681;48.982;8.394;2024-03-08T04:35:42;29.37;;;15.30;;
45970;SDS011;31681;48.982;8.394;2024-03-08T04:38:10;30.07;;;15.90;;
45970;SDS011;31681;48.982;8.394;2024-03-08T04:40:36;30.13;;;16.43;;
45970;SDS011;31681;48.982;8.394;2024-03-08T04:43:01;31.23;;;16.37;;
45970;SDS011;31681;48.982;8.394;2024-03-08T04:45:27;27.87;;;15.27;;
45970;SDS011;31681;48.982;8.394;2024-03-08T04:47:53;30.10;;;15.30;;
45970;SDS011;31681;48.982;8.394;2024-03-08T04:50:18;28.20;;;15.03;;
45970;SDS011;31681;48.982;8.394;2024-03-08T04:52:43;28.47;;;15.27;;
45970;SDS011;31681;48.982;8.394;2024-03-08T04:55:09;26.47;;;14.73;;
45970;SDS011;31681;48.982;8.394;2024-03-08T04:57:34;28.93;;;15.17;;
45970;SDS011;31681;48.982;8.394;2024-03-08T05:00:00;32.63;;;15.17;;
45970;SDS011;31681;48.982;8.394;2024-03-08T05:02:25;27.00;;;14.73;;
45970;SDS011;31681;48.982;8.394;2024-03-08T05:04:50;25.43;;;13.97;;
45970;SDS011;31681;48.982;8.394;2024-03-08T05:07:16;29.00;;;14.10;;
45970;SDS011;31681;48.982;8.394;2024-03-08T05:09:41;30.50;;;14.57;;
45970;SDS011;31681;48.982;8.394;2024-03-08T05:12:06;27.23;;;15.20;;
45970;SDS011;31681;48.982;8.394;2024-03-08T05:14:33;25.90;;;13.90;;
45970;SDS011;31681;48.982;8.394;2024-03-08T05:17:00;27.40;;;14.80;;
45970;SDS011;31681;48.982;8.394;2024-03-08T05:19:25;28.33;;;14.67;;
45970;SDS011;31681;48.982;8.394;2024-03-08T05:21:51;31.57;;;14.87;;
45970;SDS011;31681;48.982;8.394;2024-03-08T05:24:16;27.77;;;14.37;;
45970;SDS011;31681;48.982;8.394;2024-03-08T05:26:42;29.70;;;14.40;;
45970;SDS011;31681;48.982;8.394;2024-03-08T05:29:08;29.53;;;15.20;;
45970;SDS011;31681;48.982;8.394;2024-03-08T05:31:46;29.47;;;14.13;;
45970;SDS011;31681;48.982;8.394;2024-03-08T05:34:13;26.07;;;13.77;;
45970;SDS011;31681;48.982;8.394;2024-03-08T05:36:39;30.97;;;15.83;;
45970;SDS011;31681;48.982;8.394;2024-03-08T05:39:05;27.20;;;14.57;;
45970;SDS011;31681;48.982;8.394;2024-03-08T05:41:31;26.70;;;14.37;;
45970;SDS011;31681;48.982;8.394;2024-03-08T05:43:57;27.93;;;15.07;;
45970;SDS011;31681;48.982;8.394;2024-03-08T05:46:22;27.13;;;14.13;;
45970;SDS011;31681;48.982;8.394;2024-03-08T05:48:47;24.07;;;13.60;;
45970;SDS011;31681;48.982;8.394;2024-03-08T05:51:12;26.77;;;14.57;;
45970;SDS011;31681;48.982;8.394;2024-03-08T05:53:38;33.63;;;16.53;;
45970;SDS011;31681;48.982;8.394;2024-03-08T05:56:03;27.20;;;15.00;;
45970;SDS011;31681;48.982;8.394;2024-03-08T05:58:29;26.93;;;14.63;;
45970;SDS011;31681;48.982;8.394;2024-03-08T06:00:57;30.20;;;14.27;;
45970;SDS011;31681;48.982;8.394;2024-03-08T06:03:22;27.30;;;14.57;;
45970;SDS011;31681;48.982;8.394;2024-03-08T06:05:48;28.67;;;14.00;;
45970;SDS011;31681;48.982;8.394;2024-03-08T06:08:14;26.70;;;14.13;;
45970;SDS011;31681;48.982;8.394;2024-03-08T06:10:40;28.87;;;14.30;;
45970;SDS011;31681;48.982;8.394;2024-03-08T06:13:05;27.43;;;14.57;;
45970;SDS011;31681;48.982;8.394;2024-03-08T06:15:31;27.00;;;14.47;;
45970;SDS011;31681;48.982;8.394;2024-03-08T06:17:57;30.43;;;15.63;;
45970;SDS011;31681;48.982;8.394;2024-03-08T06:20:22;28.63;;;15.07;;
45970;SDS011;31681;48.982;8.394;2024-03-08T06:22:51;26.87;;;14.77;;
45970;SDS011;31681;48.982;8.394;2024-03-08T06:25:16;27.70;;;14.73;;
45970;SDS011;31681;48.982;8.394;2024-03-08T06:27:42;31.17;;;15.90;;
45970;SDS011;31681;48.982;8.394;2024-03-08T06:30:08;31.80;;;15.27;;
45970;SDS011;31681;48.982;8.394;2024-03-08T06:32:37;28.07;;;14.30;;
45970;SDS011;31681;48.982;8.394;2024-03-08T06:35:03;30.27;;;15.57;;
45970;SDS011;31681;48.982;8.394;2024-03-08T06:37:32;32.40;;;16.57;;
45970;SDS011;31681;48.982;8.394;2024-03-08T06:39:58;28.20;;;15.13;;
45970;SDS011;31681;48.982;8.394;2024-03-08T06:42:28;30.43;;;15.37;;
45970;SDS011;31681;48.982;8.394;2024-03-08T06:44:54;29.13;;;14.57;;
45970;SDS011;31681;48.982;8.394;2024-03-08T06:47:21;28.67;;;15.17;;
45970;SDS011;31681;48.982;8.394;2024-03-08T06:49:46;29.47;;;14.33;;
45970;SDS011;31681;48.982;8.394;2024-03-08T06:52:12;30.60;;;16.10;;
45970;SDS011;31681;48.982;8.394;2024-03-08T06:54:37;35.17;;;16.30;;
45970;SDS011;31681;48.982;8.394;2024-03-08T06:57:03;27.57;;;13.83;;
45970;SDS011;31681;48.982;8.394;2024-03-08T06:59:30;27.43;;;14.57;;
45970;SDS011;31681;48.982;8.394;2024-03-08T07:01:55;29.67;;;15.83;;
45970;SDS011;31681;48.982;8.394;2024-03-08T07:04:21;27.23;;;16.17;;
45970;SDS011;31681;48.982;8.394;2024-03-08T07:06:49;28.27;;;15.63;;
45970;SDS011;31681;48.982;8.394;2024-03-08T07:09:15;30.07;;;15.10;;
45970;SDS011;31681;48.982;8.394;2024-03-08T07:11:42;28.00;;;15.23;;
45970;SDS011;31681;48.982;8.394;2024-03-08T07:14:07;29.53;;;14.77;;
45970;SDS011;31681;48.982;8.394;2024-03-08T07:16:34;30.97;;;15.70;;
45970;SDS011;31681;48.982;8.394;2024-03-08T07:19:00;31.10;;;15.67;;
45970;SDS011;31681;48.982;8.394;2024-03-08T07:21:26;31.30;;;15.57;;
45970;SDS011;31681;48.982;8.394;2024-03-08T07:23:51;25.13;;;14.13;;
45970;SDS011;31681;48.982;8.394;2024-03-08T07:26:26;25.47;;;15.30;;
45970;SDS011;31681;48.982;8.394;2024-03-08T07:28:51;30.90;;;15.20;;
45970;SDS011;31681;48.982;8.394;2024-03-08T07:31:17;28.37;;;14.83;;
45970;SDS011;31681;48.982;8.394;2024-03-08T07:33:52;28.73;;;15.97;;
45970;SDS011;31681;48.982;8.394;2024-03-08T07:36:18;27.63;;;15.30;;
45970;SDS011;31681;48.982;8.394;2024-03-08T07:38:44;30.23;;;15.77;;
45970;SDS011;31681;48.982;8.394;2024-03-08T07:41:12;29.10;;;15.77;;
45970;SDS011;31681;48.982;8.394;2024-03-08T07:43:39;31.57;;;15.83;;
45970;SDS011;31681;48.982;8.394;2024-03-08T07:46:04;29.17;;;15.57;;
45970;SDS011;31681;48.982;8.394;2024-03-08T07:48:29;27.97;;;14.97;;
45970;SDS011;31681;48.982;8.394;2024-03-08T07:50:55;28.57;;;15.30;;
45970;SDS011;31681;48.982;8.394;2024-03-08T07:55:55;25.20;;;14.70;;
45970;SDS011;31681;48.982;8.394;2024-03-08T07:58:21;28.87;;;14.97;;
45970;SDS011;31681;48.982;8.394;2024-03-08T08:00:46;28.13;;;15.37;;
45970;SDS011;31681;48.982;8.394;2024-03-08T08:50:16;26.87;;;15.03;;
45970;SDS011;31681;48.982;8.394;2024-03-08T09:08:53;27.43;;;14.83;;
45970;SDS011;31681;48.982;8.394;2024-03-08T09:11:28;26.83;;;14.93;;
45970;SDS011;31681;48.982;8.394;2024-03-08T09:28:27;26.00;;;14.03;;
45970;SDS011;31681;48.982;8.394;2024-03-08T09:31:30;25.27;;;13.23;;
45970;SDS011;31681;48.982;8.394;2024-03-08T09:34:15;26.27;;;14.43;;
45970;SDS011;31681;48.982;8.394;2024-03-08T09:44:11;26.23;;;14.67;;
45970;SDS011;31681;48.982;8.394;2024-03-08T09:49:20;25.47;;;14.13;;
45970;SDS011;31681;48.982;8.394;2024-03-08T09:52:07;28.13;;;15.17;;
45970;SDS011;31681;48.982;8.394;2024-03-08T09:55:08;26.00;;;14.40;;
45970;SDS011;31681;48.982;8.394;2024-03-08T09:57:36;23.03;;;13.47;;
45970;SDS011;31681;48.982;8.394;2024-03-08T10:00:04;27.07;;;14.23;;
45970;SDS011;31681;48.982;8.394;2024-03-08T10:02:49;24.50;;;14.37;;
45970;SDS011;31681;48.982;8.394;2024-03-08T10:05:17;24.87;;;13.70;;
45970;SDS011;31681;48.982;8.394;2024-03-08T10:07:43;25.47;;;14.00;;
45970;SDS011;31681;48.982;8.394;2024-03-08T10:10:09;23.27;;;13.93;;
45970;SDS011;31681;48.982;8.394;2024-03-08T10:12:42;24.50;;;13.97;;
45970;SDS011;31681;48.982;8.394;2024-03-08T10:15:09;31.17;;;14.30;;
45970;SDS011;31681;48.982;8.394;2024-03-08T10:17:38;26.30;;;14.50;;
45970;SDS011;31681;48.982;8.394;2024-03-08T10:20:18;24.47;;;13.47;;
45970;SDS011;31681;48.982;8.394;2024-03-08T10:22:49;27.63;;;14.57;;
45970;SDS011;31681;48.982;8.394;2024-03-08T10:25:16;26.47;;;14.67;;
45970;SDS011;31681;48.982;8.394;2024-03-08T10:27:42;25.80;;;14.33;;
45970;SDS011;31681;48.982;8.394;2024-03-08T10:30:10;27.60;;;14.83;;
45970;SDS011;31681;48.982;8.394;2024-03-08T10:32:35;26.50;;;14.53;;
45970;SDS011;31681;48.982;8.394;2024-03-08T10:35:01;24.97;;;13.77;;
45970;SDS011;31681;48.982;8.394;2024-03-08T10:37:26;24.27;;;13.83;;
45970;SDS011;31681;48.982;8.394;2024-03-08T10:40:03;26.07;;;13.37;;
45970;SDS011;31681;48.982;8.394;2024-03-08T10:42:44;22.20;;;13.00;;
45970;SDS011;31681;48.982;8.394;2024-03-08T10:45:15;23.80;;;13.37;;
45970;SDS011;31681;48.982;8.394;2024-03-08T10:47:46;23.43;;;13.03;;
45970;SDS011;31681;48.982;8.394;2024-03-08T10:50:20;22.50;;;12.93;;
45970;SDS011;31681;48.982;8.394;2024-03-08T10:52:50;21.40;;;12.73;;
45970;SDS011;31681;48.982;8.394;2024-03-08T10:55:16;23.90;;;13.70;;
45970;SDS011;31681;48.982;8.394;2024-03-08T10:57:42;23.10;;;13.40;;
45970;SDS011;31681;48.982;8.394;2024-03-08T11:00:08;22.07;;;13.17;;
45970;SDS011;31681;48.982;8.394;2024-03-08T11:02:37;24.27;;;13.20;;
45970;SDS011;31681;48.982;8.394;2024-03-08T11:08:01;23.40;;;12.43;;
45970;SDS011;31681;48.982;8.394;2024-03-08T11:10:26;22.47;;;12.67;;
45970;SDS011;31681;48.982;8.394;2024-03-08T11:12:51;22.80;;;12.67;;
45970;SDS011;31681;48.982;8.394;2024-03-08T11:15:17;21.00;;;10.93;;
45970;SDS011;31681;48.982;8.394;2024-03-08T11:17:47;21.97;;;12.03;;
45970;SDS011;31681;48.982;8.394;2024-03-08T11:20:17;26.53;;;13.30;;
45970;SDS011;31681;48.982;8.394;2024-03-08T11:28:06;27.87;;;12.93;;
45970;SDS011;31681;48.982;8.394;2024-03-08T11:30:32;23.33;;;11.83;;
45970;SDS011;31681;48.982;8.394;2024-03-08T11:33:00;20.40;;;12.07;;
45970;SDS011;31681;48.982;8.394;2024-03-08T11:35:26;18.07;;;12.20;;
45970;SDS011;31681;48.982;8.394;2024-03-08T11:37:52;22.27;;;12.77;;
45970;SDS011;31681;48.982;8.394;2024-03-08T11:40:18;25.73;;;12.73;;
45970;SDS011;31681;48.982;8.394;2024-03-08T11:42:45;23.80;;;13.43;;
45970;SDS011;31681;48.982;8.394;2024-03-08T11:45:12;20.63;;;11.97;;
45970;SDS011;31681;48.982;8.394;2024-03-08T11:47:41;21.87;;;12.90;;
45970;SDS011;31681;48.982;8.394;2024-03-08T11:50:06;20.13;;;11.90;;
45970;SDS011;31681;48.982;8.394;2024-03-08T11:52:36;21.80;;;11.90;;
45970;SDS011;31681;48.982;8.394;2024-03-08T11:55:01;22.57;;;12.77;;
45970;SDS011;31681;48.982;8.394;2024-03-08T11:57:27;19.87;;;12.57;;
45970;SDS011;31681;48.982;8.394;2024-03-08T11:59:54;19.80;;;12.00;;
45970;SDS011;31681;48.982;8.394;2024-03-08T12:02:21;21.17;;;12.77;;
45970;SDS011;31681;48.982;8.394;2024-03-08T12:04:55;20.30;;;12.03;;
45970;SDS011;31681;48.982;8.394;2024-03-08T12:07:20;24.30;;;13.47;;
45970;SDS011;31681;48.982;8.394;2024-03-08T12:10:13;20.00;;;11.53;;
45970;SDS011;31681;48.982;8.394;2024-03-08T12:12:37;24.73;;;12.70;;
45970;SDS011;31681;48.982;8.394;2024-03-08T12:15:04;21.97;;;12.33;;
45970;SDS011;31681;48.982;8.394;2024-03-08T12:17:30;20.30;;;12.33;;
45970;SDS011;31681;48.982;8.394;2024-03-08T12:19:55;19.43;;;11.50;;
45970;SDS011;31681;48.982;8.394;2024-03-08T12:22:24;19.57;;;11.83;;
45970;SDS011;31681;48.982;8.394;2024-03-08T12:25:03;22.40;;;12.43;;
45970;SDS011;31681;48.982;8.394;2024-03-08T12:27:30;18.23;;;12.27;;
45970;SDS011;31681;48.982;8.394;2024-03-08T12:29:55;20.90;;;12.47;;
45970;SDS011;31681;48.982;8.394;2024-03-08T12:32:20;19.47;;;12.17;;
45970;SDS011;31681;48.982;8.394;2024-03-08T12:34:51;21.88;;;11.98;;
45970;SDS011;31681;48.982;8.394;2024-03-08T12:37:26;21.13;;;12.10;;
45970;SDS011;31681;48.982;8.394;2024-03-08T12:39:55;19.23;;;12.05;;
45970;SDS011;31681;48.982;8.394;2024-03-08T12:42:23;20.92;;;12.27;;
45970;SDS011;31681;48.982;8.394;2024-03-08T12:44:51;20.90;;;11.95;;
45970;SDS011;31681;48.982;8.394;2024-03-08T12:47:27;18.88;;;11.70;;
45970;SDS011;31681;48.982;8.394;2024-03-08T12:49:58;20.02;;;12.30;;
45970;SDS011;31681;48.982;8.394;2024-03-08T12:55:00;20.92;;;12.38;;
45970;SDS011;31681;48.982;8.394;2024-03-08T12:57:45;21.00;;;12.18;;
45970;SDS011;31681;48.982;8.394;2024-03-08T13:00:16;21.35;;;12.70;;
45970;SDS011;31681;48.982;8.394;2024-03-08T13:02:51;22.73;;;13.23;;
45970;SDS011;31681;48.982;8.394;2024-03-08T13:08:52;19.60;;;11.52;;
45970;SDS011;31681;48.982;8.394;2024-03-08T13:11:24;23.00;;;12.13;;
45970;SDS011;31681;48.982;8.394;2024-03-08T13:13:57;21.63;;;12.85;;
45970;SDS011;31681;48.982;8.394;2024-03-08T13:16:29;19.35;;;11.52;;
45970;SDS011;31681;48.982;8.394;2024-03-08T13:19:02;20.98;;;12.80;;
45970;SDS011;31681;48.982;8.394;2024-03-08T13:21:37;21.08;;;12.68;;
45970;SDS011;31681;48.982;8.394;2024-03-08T13:24:34;20.08;;;12.32;;
45970;SDS011;31681;48.982;8.394;2024-03-08T13:27:09;23.42;;;12.02;;
45970;SDS011;31681;48.982;8.394;2024-03-08T13:29:56;18.30;;;12.00;;
45970;SDS011;31681;48.982;8.394;2024-03-08T13:32:54;18.83;;;12.05;;
45970;SDS011;31681;48.982;8.394;2024-03-08T13:38:20;22.88;;;12.43;;
45970;SDS011;31681;48.982;8.394;2024-03-08T13:41:11;21.10;;;12.50;;
45970;SDS011;31681;48.982;8.394;2024-03-08T13:44:07;21.92;;;12.05;;
45970;SDS011;31681;48.982;8.394;2024-03-08T13:46:40;19.73;;;12.98;;
45970;SDS011;31681;48.982;8.394;2024-03-08T13:49:18;21.13;;;12.73;;
45970;SDS011;31681;48.982;8.394;2024-03-08T13:57:31;20.52;;;12.50;;
45970;SDS011;31681;48.982;8.394;2024-03-08T13:59:57;22.02;;;14.10;;
45970;SDS011;31681;48.982;8.394;2024-03-08T14:02:33;24.17;;;13.38;;
45970;SDS011;31681;48.982;8.394;2024-03-08T14:05:09;20.50;;;12.25;;
45970;SDS011;31681;48.982;8.394;2024-03-08T14:07:48;23.90;;;14.55;;
45970;SDS011;31681;48.982;8.394;2024-03-08T14:10:22;23.58;;;13.57;;
45970;SDS011;31681;48.982;8.394;2024-03-08T14:12:58;19.45;;;12.23;;
45970;SDS011;31681;48.982;8.394;2024-03-08T14:15:42;21.02;;;13.15;;
45970;SDS011;31681;48.982;8.394;2024-03-08T14:18:22;19.45;;;12.40;;
45970;SDS011;31681;48.982;8.394;2024-03-08T14:20:55;20.23;;;12.30;;
45970;SDS011;31681;48.982;8.394;2024-03-08T14:23:21;19.00;;;12.05;;
45970;SDS011;31681;48.982;8.394;2024-03-08T14:25:48;22.50;;;13.38;;
45970;SDS011;31681;48.982;8.394;2024-03-08T14:28:17;20.45;;;12.45;;
45970;SDS011;31681;48.982;8.394;2024-03-08T14:30:44;23.60;;;14.15;;
45970;SDS011;31681;48.982;8.394;2024-03-08T14:33:09;21.48;;;12.38;;
45970;SDS011;31681;48.982;8.394;2024-03-08T14:35:35;23.38;;;13.05;;
45970;SDS011;31681;48.982;8.394;2024-03-08T14:38:04;21.00;;;11.95;;
45970;SDS011;31681;48.982;8.394;2024-03-08T14:40:30;19.92;;;12.95;;
45970;SDS011;31681;48.982;8.394;2024-03-08T14:42:56;23.17;;;12.85;;
45970;SDS011;31681;48.982;8.394;2024-03-08T14:45:23;21.08;;;11.60;;
45970;SDS011;31681;48.982;8.394;2024-03-08T14:47:49;21.52;;;12.95;;
45970;SDS011;31681;48.982;8.394;2024-03-08T14:50:17;19.58;;;12.65;;
45970;SDS011;31681;48.982;8.394;2024-03-08T14:52:43;19.50;;;12.30;;
45970;SDS011;31681;48.982;8.394;2024-03-08T14:55:09;20.75;;;11.30;;
45970;SDS011;31681;48.982;8.394;2024-03-08T14:57:38;22.25;;;12.63;;
45970;SDS011;31681;48.982;8.394;2024-03-08T15:00:04;22.67;;;13.35;;
45970;SDS011;31681;48.982;8.394;2024-03-08T15:02:32;22.05;;;13.35;;
45970;SDS011;31681;48.982;8.394;2024-03-08T15:05:02;23.42;;;12.75;;
45970;SDS011;31681;48.982;8.394;2024-03-08T15:13:07;23.75;;;13.18;;
45970;SDS011;31681;48.982;8.394;2024-03-08T15:15:39;26.85;;;13.55;;
45970;SDS011;31681;48.982;8.394;2024-03-08T15:18:09;23.40;;;12.32;;
45970;SDS011;31681;48.982;8.394;2024-03-08T15:20:42;21.98;;;12.07;;
45970;SDS011;31681;48.982;8.394;2024-03-08T15:23:08;25.98;;;12.65;;
45970;SDS011;31681;48.982;8.394;2024-03-08T15:25:35;23.70;;;13.27;;
45970;SDS011;31681;48.982;8.394;2024-03-08T15:28:15;24.25;;;13.20;;
45970;SDS011;31681;48.982;8.394;2024-03-08T15:30:52;22.23;;;13.57;;
45970;SDS011;31681;48.982;8.394;2024-03-08T15:33:28;24.65;;;13.32;;
45970;SDS011;31681;48.982;8.394;2024-03-08T15:36:00;25.42;;;12.77;;
45970;SDS011;31681;48.982;8.394;2024-03-08T15:38:35;24.27;;;12.77;;
45970;SDS011;31681;48.982;8.394;2024-03-08T15:41:07;23.77;;;13.57;;
45970;SDS011;31681;48.982;8.394;2024-03-08T15:43:36;22.70;;;12.38;;
45970;SDS011;31681;48.982;8.394;2024-03-08T15:46:03;22.40;;;12.00;;
45970;SDS011;31681;48.982;8.394;2024-03-08T15:48:32;21.58;;;12.23;;
45970;SDS011;31681;48.982;8.394;2024-03-08T15:51:07;22.42;;;12.25;;
45970;SDS011;31681;48.982;8.394;2024-03-08T15:54:09;19.30;;;11.60;;
45970;SDS011;31681;48.982;8.394;2024-03-08T16:04:32;23.83;;;12.80;;
45970;SDS011;31681;48.982;8.394;2024-03-08T16:07:16;22.30;;;13.52;;
45970;SDS011;31681;48.982;8.394;2024-03-08T16:12:51;22.73;;;11.85;;
45970;SDS011;31681;48.982;8.394;2024-03-08T16:15:36;21.27;;;12.30;;
45970;SDS011;31681;48.982;8.394;2024-03-08T16:18:03;23.83;;;12.70;;
45970;SDS011;31681;48.982;8.394;2024-03-08T16:20:30;22.90;;;12.23;;
45970;SDS011;31681;48.982;8.394;2024-03-08T16:22:59;23.20;;;11.93;;
45970;SDS011;31681;48.982;8.394;2024-03-08T16:25:24;21.75;;;11.57;;
45970;SDS011;31681;48.982;8.394;2024-03-08T16:27:49;21.92;;;11.82;;
45970;SDS011;31681;48.982;8.394;2024-03-08T16:30:15;20.70;;;11.48;;
45970;SDS011;31681;48.982;8.394;2024-03-08T16:32:44;21.92;;;11.70;;
45970;SDS011;31681;48.982;8.394;2024-03-08T16:35:13;18.50;;;11.25;;
45970;SDS011;31681;48.982;8.394;2024-03-08T16:37:41;22.45;;;12.02;;